Time;durP1;ratioP1;P1;durP2;ratioP2;P2;SDS_P1;SDS_P2;PMS_P1;PMS_P2;Temp;Humidity;BMP_temperature;BMP_pressure;BME280_temperature;BME280_humidity;BME280_pressure;Samples;Min_cycle;Max_cycle;Signal;HPM_P1;HPM_P2
2022/07/17 00:01:16;;;;;;;7.20;1.80;;;;;;;14.43;58.26;102106.94;5075369;28;20106;-68
2022/07/17 00:03:42;;;;;;;8.13;1.63;;;;;;;14.32;58.74;102109.19;5063571;28;21495;-67
2022/07/17 00:06:09;;;;;;;8.20;2.42;;;;;;;14.28;59.01;102110.25;5066476;28;20574;-67
2022/07/17 00:08:35;;;;;;;5.90;1.45;;;;;;;13.75;60.62;102106.47;5068114;28;20097;-67
2022/07/17 00:11:02;;;;;;;6.68;1.52;;;;;;;13.63;61.04;102111.34;5065727;28;20045;-67
2022/07/17 00:13:28;;;;;;;4.47;1.35;;;;;;;13.40;61.98;102108.84;5065948;28;20081;-67
2022/07/17 00:15:56;;;;;;;7.28;1.85;;;;;;;13.42;61.68;102114.03;5066925;28;20048;-67
2022/07/17 00:18:23;;;;;;;6.72;1.52;;;;;;;13.25;62.60;102114.75;5065665;28;20052;-67
2022/07/17 00:20:49;;;;;;;6.70;1.80;;;;;;;13.24;62.53;102113.03;5065939;28;20066;-67
2022/07/17 00:23:15;;;;;;;4.55;1.38;;;;;;;13.45;61.96;102112.13;5066944;28;20052;-67
2022/07/17 00:25:42;;;;;;;7.68;1.75;;;;;;;13.80;60.35;102117.69;5058686;28;20478;-67
2022/07/17 00:28:08;;;;;;;5.22;1.98;;;;;;;13.65;60.62;102117.44;5057364;28;20057;-67
2022/07/17 00:30:35;;;;;;;4.25;1.52;;;;;;;13.43;61.49;102116.63;5052505;28;20114;-67
2022/07/17 00:33:03;;;;;;;6.93;1.38;;;;;;;13.55;61.11;102118.75;5055719;28;20044;-67
2022/07/17 00:35:29;;;;;;;8.10;2.03;;;;;;;13.08;63.02;102117.19;5066445;28;20048;-67
2022/07/17 00:37:56;;;;;;;8.93;1.65;;;;;;;13.28;62.21;102111.97;5066954;28;20071;-67
2022/07/17 00:40:24;;;;;;;4.93;1.52;;;;;;;13.46;61.45;102103.31;5065634;28;20044;-67
2022/07/17 00:42:52;;;;;;;6.10;1.63;;;;;;;13.33;62.17;102104.75;5067068;28;20048;-67
2022/07/17 00:45:19;;;;;;;6.47;1.58;;;;;;;13.36;62.17;102111.66;5066450;28;20411;-67
2022/07/17 00:47:52;;;;;;;9.60;2.42;;;;;;;13.23;62.67;102108.66;5067414;28;20044;-67
2022/07/17 00:50:20;;;;;;;13.65;2.13;;;;;;;13.16;62.72;102109.84;5065033;28;20097;-67
2022/07/17 00:52:47;;;;;;;4.82;1.55;;;;;;;13.09;63.10;102103.06;5066078;28;20077;-67
2022/07/17 00:55:14;;;;;;;5.30;1.40;;;;;;;13.02;63.33;102115.63;5067292;28;20094;-67
2022/07/17 00:57:41;;;;;;;4.65;1.50;;;;;;;13.12;62.88;102110.88;5066401;28;20494;-67
2022/07/17 01:00:10;;;;;;;6.10;1.65;;;;;;;13.10;63.04;102112.72;5064379;28;20385;-67
2022/07/17 01:02:37;;;;;;;4.88;1.45;;;;;;;13.08;62.88;102117.19;5063692;28;20045;-67
2022/07/17 01:05:05;;;;;;;8.85;2.28;;;;;;;13.13;62.57;102112.59;5045711;28;20053;-68
2022/07/17 01:07:33;;;;;;;5.75;1.77;;;;;;;13.05;63.27;102112.00;5046613;28;20094;-67
2022/07/17 01:09:59;;;;;;;7.72;2.20;;;;;;;12.94;63.32;102111.59;5045956;28;20048;-67
2022/07/17 01:12:26;;;;;;;9.45;1.83;;;;;;;12.81;63.66;102105.97;5045227;28;20126;-67
2022/07/17 01:14:53;;;;;;;4.75;1.52;;;;;;;12.98;63.21;102114.03;5046811;28;20048;-68
2022/07/17 01:17:19;;;;;;;5.47;1.63;;;;;;;13.04;62.72;102111.16;5046602;28;20045;-68
2022/07/17 01:19:46;;;;;;;10.43;2.20;;;;;;;13.51;61.17;102109.25;5044293;28;20041;-68
2022/07/17 01:22:13;;;;;;;5.85;1.77;;;;;;;13.45;61.71;102120.03;5048066;28;20407;-68
2022/07/17 01:24:40;;;;;;;8.68;1.60;;;;;;;13.86;60.27;102110.34;5051082;28;20455;-68
2022/07/17 01:27:06;;;;;;;8.77;1.70;;;;;;;13.90;60.21;102113.72;5049973;28;20115;-68
2022/07/17 01:29:33;;;;;;;5.55;1.45;;;;;;;13.61;61.08;102105.31;5050255;28;20118;-68
2022/07/17 01:31:59;;;;;;;6.47;1.52;;;;;;;13.42;61.73;102107.00;5049828;28;20381;-68
2022/07/17 01:34:26;;;;;;;6.80;1.40;;;;;;;13.18;62.58;102107.16;5049531;28;20646;-68
2022/07/17 01:36:52;;;;;;;7.95;1.80;;;;;;;13.07;63.06;102110.19;5048961;28;20492;-68
2022/07/17 01:39:52;;;;;;;5.65;1.50;;;;;;;12.73;64.83;102108.03;5051052;28;20098;-68
2022/07/17 01:42:07;;;;;;;8.55;1.65;;;;;;;12.77;64.52;102109.63;5070328;28;20036;-68
2022/07/17 01:44:33;;;;;;;9.77;2.00;;;;;;;13.05;63.59;102114.66;5070686;28;20041;-68
2022/07/17 01:46:59;;;;;;;6.32;2.05;;;;;;;13.25;62.63;102125.28;5068854;28;20045;-68
2022/07/17 01:49:26;;;;;;;6.68;2.22;;;;;;;13.47;61.67;102104.16;5060950;28;20040;-68
2022/07/17 01:51:52;;;;;;;5.97;1.60;;;;;;;13.31;62.08;102116.25;5070434;28;20052;-68
2022/07/17 01:54:20;;;;;;;5.68;1.73;;;;;;;13.38;61.97;102108.03;5069267;28;20113;-68
2022/07/17 01:56:46;;;;;;;7.55;1.77;;;;;;;13.34;61.67;102113.53;5071705;28;20041;-68
2022/07/17 01:59:12;;;;;;;6.70;1.80;;;;;;;13.35;61.79;102107.31;5068306;28;20094;-68
2022/07/17 02:01:39;;;;;;;17.20;2.15;;;;;;;13.26;62.25;102107.72;5073839;28;20138;-68
2022/07/17 02:04:05;;;;;;;9.00;1.95;;;;;;;12.99;63.01;102105.22;5070725;28;20657;-68
2022/07/17 02:06:31;;;;;;;16.27;2.08;;;;;;;12.95;63.31;102108.91;5068142;28;20125;-68
2022/07/17 02:08:58;;;;;;;8.82;2.08;;;;;;;12.89;63.53;102105.66;5062836;28;20096;-68
2022/07/17 02:11:25;;;;;;;5.03;1.65;;;;;;;12.80;64.41;102108.66;5066835;28;20048;-68
2022/07/17 02:13:52;;;;;;;5.50;2.00;;;;;;;12.58;65.08;102106.84;5067967;28;20048;-68
2022/07/17 02:16:18;;;;;;;12.75;1.88;;;;;;;12.59;65.36;102107.72;5068321;28;20045;-68
2022/07/17 02:18:45;;;;;;;8.43;1.60;;;;;;;12.86;64.19;102103.16;5054196;28;20149;-67
2022/07/17 02:21:11;;;;;;;9.15;1.85;;;;;;;12.55;65.20;102099.09;5054707;28;20470;-67
2022/07/17 02:23:38;;;;;;;4.68;1.70;;;;;;;12.72;64.51;102113.34;5068402;28;20051;-68
2022/07/17 02:26:04;;;;;;;10.32;2.08;;;;;;;12.32;65.67;102106.13;5068891;28;20093;-68
2022/07/17 02:28:32;;;;;;;4.70;1.65;;;;;;;12.43;65.48;102101.31;5068820;28;20049;-68
2022/07/17 02:30:58;;;;;;;6.05;1.60;;;;;;;12.49;65.21;102098.47;5068845;28;20098;-68
2022/07/17 02:33:24;;;;;;;6.57;1.67;;;;;;;12.39;65.35;102107.59;5070465;28;20480;-67
2022/07/17 02:35:51;;;;;;;7.72;1.65;;;;;;;11.94;66.89;102108.34;5067526;28;20045;-67
2022/07/17 02:38:17;;;;;;;7.70;1.55;;;;;;;12.15;66.39;102115.50;5069501;28;20535;-67
2022/07/17 02:40:44;;;;;;;10.77;1.85;;;;;;;12.18;66.29;102115.38;5068233;28;20462;-67
2022/07/17 02:43:10;;;;;;;5.82;1.92;;;;;;;12.24;66.21;102118.69;5068237;28;20075;-67
2022/07/17 02:45:38;;;;;;;5.07;1.52;;;;;;;12.66;64.42;102123.22;5055448;28;20076;-67
2022/07/17 02:48:05;;;;;;;8.77;1.90;;;;;;;12.78;63.82;102111.34;5065507;28;20539;-67
2022/07/17 02:50:31;;;;;;;6.43;1.85;;;;;;;12.56;64.89;102113.94;5066776;28;20060;-67
2022/07/17 02:52:58;;;;;;;7.03;2.08;;;;;;;12.45;64.88;102116.09;5065548;28;20550;-67
2022/07/17 02:55:25;;;;;;;3.75;1.48;;;;;;;12.58;64.66;102119.16;5064808;28;20054;-68
2022/07/17 02:57:51;;;;;;;7.38;1.60;;;;;;;12.59;64.43;102120.88;5080681;28;20093;-68
2022/07/17 03:00:20;;;;;;;7.75;1.67;;;;;;;12.65;64.69;102123.25;5089028;28;20044;-67
2022/07/17 03:02:48;;;;;;;4.13;1.63;;;;;;;12.65;63.99;102132.00;5069054;28;20047;-67
2022/07/17 03:05:17;;;;;;;4.65;1.67;;;;;;;12.81;63.59;102127.03;5072734;28;20055;-68
2022/07/17 03:07:44;;;;;;;7.80;1.63;;;;;;;12.88;63.49;102131.13;5088331;28;20101;-67
2022/07/17 03:10:11;;;;;;;9.15;2.03;;;;;;;13.07;62.92;102132.13;5088587;28;20054;-67
2022/07/17 03:12:37;;;;;;;8.18;1.83;;;;;;;12.71;63.68;102132.72;5088265;28;20418;-67
2022/07/17 03:15:04;;;;;;;9.05;2.13;;;;;;;12.43;64.50;102139.00;5088297;28;20051;-67
2022/07/17 03:17:31;;;;;;;5.50;1.70;;;;;;;12.33;65.37;102139.41;5083649;28;20048;-67
2022/07/17 03:19:58;;;;;;;2.90;1.50;;;;;;;12.49;65.06;102146.66;5065927;28;20110;-67
2022/07/17 03:22:25;;;;;;;5.90;1.80;;;;;;;12.63;63.78;102143.53;5024836;28;20071;-67
2022/07/17 03:24:51;;;;;;;7.32;1.65;;;;;;;12.54;64.11;102135.97;5068226;28;20094;-68
2022/07/17 03:27:18;;;;;;;6.60;1.95;;;;;;;12.29;65.13;102128.13;5074442;28;20097;-67
2022/07/17 03:29:44;;;;;;;4.70;1.42;;;;;;;11.73;67.31;102135.41;5086876;28;20117;-67
2022/07/17 03:32:11;;;;;;;7.15;1.80;;;;;;;11.40;68.70;102145.25;5073859;28;20048;-67
2022/07/17 03:34:37;;;;;;;5.13;1.65;;;;;;;11.51;68.71;102137.00;5068231;28;20106;-67
2022/07/17 03:37:06;;;;;;;5.53;1.70;;;;;;;11.54;68.59;102143.00;5068570;28;20479;-68
2022/07/17 03:39:32;;;;;;;8.63;1.80;;;;;;;11.67;68.01;102132.97;5063904;28;20075;-68
2022/07/17 03:41:59;;;;;;;6.07;1.58;;;;;;;11.56;68.31;102135.94;5067557;28;20094;-68
2022/07/17 03:44:25;;;;;;;7.60;1.88;;;;;;;11.75;67.74;102135.38;5068240;28;20044;-67
2022/07/17 03:46:51;;;;;;;5.60;1.55;;;;;;;12.03;67.03;102144.00;5067040;28;20040;-67
2022/07/17 03:49:18;;;;;;;6.72;1.55;;;;;;;12.21;66.33;102148.59;5065761;28;20044;-67
2022/07/17 03:51:44;;;;;;;6.05;2.20;;;;;;;12.22;66.54;102150.31;5068944;27;20044;-67
2022/07/17 03:54:12;;;;;;;4.32;1.77;;;;;;;12.10;66.78;102154.22;5066231;28;20074;-67
2022/07/17 03:56:38;;;;;;;9.18;1.90;;;;;;;12.05;66.94;102150.03;5066153;28;20041;-67
2022/07/17 03:59:04;;;;;;;3.50;2.05;;;;;;;11.97;67.66;102152.09;5058373;28;20382;-67
2022/07/17 04:01:31;;;;;;;4.93;1.92;;;;;;;12.29;66.83;102157.06;5045916;28;20575;-67
2022/07/17 04:03:57;;;;;;;8.40;2.03;;;;;;;12.68;65.81;102157.34;5064684;28;20048;-67
2022/07/17 04:06:23;;;;;;;7.85;1.65;;;;;;;12.65;65.87;102157.47;5067382;28;20044;-67
2022/07/17 04:08:50;;;;;;;10.45;2.20;;;;;;;12.55;65.74;102162.22;5066911;28;20444;-67
2022/07/17 04:11:19;;;;;;;3.88;1.40;;;;;;;12.24;67.38;102172.13;5067566;28;20049;-67
2022/07/17 04:13:46;;;;;;;9.95;2.08;;;;;;;12.09;68.43;102167.41;5067227;28;20091;-67
2022/07/17 04:16:12;;;;;;;8.07;2.25;;;;;;;12.57;67.09;102170.03;5067409;28;20835;-67
2022/07/17 04:18:39;;;;;;;10.52;2.17;;;;;;;12.65;66.78;102163.59;5062037;28;20040;-67
2022/07/17 04:21:07;;;;;;;10.52;1.88;;;;;;;12.73;66.66;102178.22;5062157;28;20056;-67
2022/07/17 04:23:34;;;;;;;7.70;1.70;;;;;;;12.84;66.90;102178.69;5062162;28;20056;-67
2022/07/17 04:26:01;;;;;;;4.25;1.58;;;;;;;13.01;66.20;102179.75;5067753;28;20508;-67
2022/07/17 04:28:28;;;;;;;5.18;1.92;;;;;;;13.30;65.67;102176.00;5063251;28;20058;-67
2022/07/17 04:30:55;;;;;;;3.78;1.48;;;;;;;13.68;64.42;102192.88;5041963;28;20049;-67
2022/07/17 04:33:21;;;;;;;4.15;1.85;;;;;;;13.70;64.30;102191.03;5025180;28;20045;-67
2022/07/17 04:35:48;;;;;;;7.32;2.65;;;;;;;13.86;63.93;102194.72;5028180;28;20390;-67
2022/07/17 04:38:14;;;;;;;4.40;1.63;;;;;;;14.18;63.41;102198.66;5064113;28;20572;-67
2022/07/17 04:40:42;;;;;;;7.60;2.15;;;;;;;14.64;62.23;102210.69;5080674;28;20399;-67
2022/07/17 04:43:08;;;;;;;16.80;2.30;;;;;;;14.52;62.74;102205.97;5049001;28;20037;-67
2022/07/17 04:45:36;;;;;;;5.43;1.63;;;;;;;14.38;63.40;102203.91;5042659;28;20052;-67
2022/07/17 04:48:02;;;;;;;6.00;1.80;;;;;;;14.60;63.32;102204.69;5044522;28;20118;-67
2022/07/17 04:50:29;;;;;;;6.88;1.90;;;;;;;14.91;62.62;102200.63;5049624;28;20040;-67
2022/07/17 04:52:55;;;;;;;8.77;2.00;;;;;;;15.05;61.53;102195.56;5077338;28;20040;-67
2022/07/17 04:55:21;;;;;;;7.30;2.67;;;;;;;15.50;60.59;102203.09;5063715;28;20110;-67
2022/07/17 04:57:48;;;;;;;6.25;1.75;;;;;;;15.34;61.13;102197.66;5064222;28;20098;-67
2022/07/17 05:00:15;;;;;;;5.05;1.42;;;;;;;15.17;62.21;102187.06;5061776;28;20056;-67
2022/07/17 05:02:43;;;;;;;10.25;1.80;;;;;;;15.44;60.48;102191.03;5065225;28;20479;-67
2022/07/17 05:05:10;;;;;;;6.20;1.70;;;;;;;15.34;60.70;102183.59;5065250;28;20633;-67
2022/07/17 05:07:36;;;;;;;7.68;1.80;;;;;;;15.58;61.00;102169.22;5064103;28;20450;-67
2022/07/17 05:10:04;;;;;;;7.75;2.40;;;;;;;15.66;60.76;102164.41;5063487;28;20049;-67
2022/07/17 05:12:30;;;;;;;6.07;1.80;;;;;;;16.35;58.69;102154.59;5066090;28;20051;-67
2022/07/17 05:14:57;;;;;;;5.38;1.75;;;;;;;16.14;59.46;102168.97;5063799;28;20044;-67
2022/07/17 05:17:23;;;;;;;10.65;2.03;;;;;;;16.54;58.62;102168.56;5064539;28;20567;-67
2022/07/17 05:19:51;;;;;;;3.95;1.63;;;;;;;16.88;58.04;102169.41;5064963;28;20105;-67
2022/07/17 05:22:17;;;;;;;5.60;1.67;;;;;;;16.79;58.32;102172.53;5064248;28;20134;-67
2022/07/17 05:24:44;;;;;;;6.32;1.75;;;;;;;16.96;57.76;102180.44;5065118;28;20098;-67
2022/07/17 05:27:10;;;;;;;8.75;1.88;;;;;;;17.18;57.82;102191.56;5065789;28;20055;-67
2022/07/17 05:29:36;;;;;;;8.02;1.77;;;;;;;17.87;55.84;102196.41;5061529;28;20086;-67
2022/07/17 05:32:03;;;;;;;7.57;1.80;;;;;;;18.08;56.66;102192.47;5064630;28;20062;-67
2022/07/17 05:34:29;;;;;;;6.25;1.45;;;;;;;18.52;55.98;102191.56;5062898;28;20098;-67
2022/07/17 05:36:58;;;;;;;13.55;2.90;;;;;;;18.93;53.66;102205.78;5064098;28;20040;-67
2022/07/17 05:39:24;;;;;;;5.60;1.63;;;;;;;18.69;53.59;102210.00;5064856;28;20068;-67
2022/07/17 05:41:50;;;;;;;6.53;1.60;;;;;;;19.03;52.43;102198.09;5064715;28;20095;-67
2022/07/17 05:44:17;;;;;;;8.57;1.65;;;;;;;18.87;52.64;102207.03;5063171;28;20045;-67
2022/07/17 05:46:43;;;;;;;8.57;1.85;;;;;;;18.71;53.36;102206.28;5065149;28;20496;-67
2022/07/17 05:49:09;;;;;;;9.52;1.58;;;;;;;18.76;52.65;102213.97;5063836;28;20048;-67
2022/07/17 05:51:36;;;;;;;7.28;1.55;;;;;;;18.68;53.40;102206.50;5070758;28;20043;-67
2022/07/17 05:54:04;;;;;;;8.35;1.70;;;;;;;19.20;53.06;102211.16;5079180;28;20102;-67
2022/07/17 05:56:30;;;;;;;6.60;1.75;;;;;;;19.48;51.44;102207.56;5065503;28;20049;-67
2022/07/17 05:58:56;;;;;;;8.50;1.55;;;;;;;19.56;51.02;102210.59;5061941;28;20045;-67
2022/07/17 06:01:23;;;;;;;12.40;1.92;;;;;;;19.44;50.98;102214.91;5065942;28;20048;-67
2022/07/17 06:03:49;;;;;;;8.02;1.73;;;;;;;19.33;51.67;102215.56;5043942;28;20040;-67
2022/07/17 06:06:15;;;;;;;5.75;1.13;;;;;;;19.58;52.11;102220.19;5042564;28;20091;-67
2022/07/17 06:08:42;;;;;;;5.35;1.33;;;;;;;19.38;51.42;102225.91;5047664;28;20041;-67
2022/07/17 06:11:09;;;;;;;6.40;1.48;;;;;;;19.46;51.99;102217.47;5048112;28;20052;-67
2022/07/17 06:13:36;;;;;;;9.23;1.98;;;;;;;19.43;51.82;102221.19;5046209;28;20056;-67
2022/07/17 06:16:02;;;;;;;7.95;1.50;;;;;;;19.60;51.40;102217.41;5058964;28;20056;-67
2022/07/17 06:18:29;;;;;;;6.50;1.85;;;;;;;19.73;51.30;102226.31;5066843;28;20090;-67
2022/07/17 06:20:55;;;;;;;9.65;1.67;;;;;;;19.99;49.97;102220.09;5067357;28;20045;-67
2022/07/17 06:23:21;;;;;;;9.40;1.73;;;;;;;20.19;50.51;102226.69;5065591;28;20178;-68
2022/07/17 06:25:48;;;;;;;6.22;1.30;;;;;;;19.91;49.45;102225.06;5067987;28;20040;-67
2022/07/17 06:28:15;;;;;;;7.43;1.60;;;;;;;19.94;51.24;102222.19;5069200;28;20044;-67
2022/07/17 06:30:42;;;;;;;7.43;1.50;;;;;;;20.13;50.18;102227.97;5053807;28;20045;-67
2022/07/17 06:33:08;;;;;;;6.68;1.30;;;;;;;20.14;50.09;102232.34;5056832;28;20044;-68
2022/07/17 06:35:34;;;;;;;6.47;1.60;;;;;;;20.16;50.09;102235.75;5056771;28;20041;-68
2022/07/17 06:38:02;;;;;;;3.75;1.15;;;;;;;20.40;49.89;102242.09;5066771;28;20040;-68
2022/07/17 06:40:29;;;;;;;11.43;1.90;;;;;;;20.40;49.17;102230.56;5066456;28;20063;-68
2022/07/17 06:42:56;;;;;;;7.78;1.80;;;;;;;20.18;50.35;102225.84;5067056;28;20045;-68
2022/07/17 06:45:24;;;;;;;8.43;1.52;;;;;;;20.40;51.08;102230.56;5063388;28;20072;-68
2022/07/17 06:47:50;;;;;;;8.07;1.65;;;;;;;21.10;49.15;102221.09;5046939;28;20107;-68
2022/07/17 06:50:16;;;;;;;8.02;1.40;;;;;;;21.12;48.21;102229.88;5063706;28;20053;-67
2022/07/17 06:52:42;;;;;;;23.20;2.63;;;;;;;20.85;48.57;102223.81;5061840;28;20052;-67
2022/07/17 06:55:09;;;;;;;7.30;1.55;;;;;;;20.87;46.70;102227.25;5067664;28;20521;-67
2022/07/17 06:57:36;;;;;;;7.30;1.65;;;;;;;21.51;46.56;102217.22;5069304;28;20493;-67
2022/07/17 07:00:03;;;;;;;7.90;1.80;;;;;;;21.83;45.93;102221.03;5075784;28;20136;-67
2022/07/17 07:02:31;;;;;;;6.95;1.42;;;;;;;21.84;43.72;102220.03;5055930;28;20037;-67
2022/07/17 07:04:58;;;;;;;6.88;1.60;;;;;;;21.70;45.64;102217.56;5049538;28;20045;-67
2022/07/17 07:07:24;;;;;;;4.55;1.42;;;;;;;22.14;45.06;102224.91;5048351;28;20497;-67
2022/07/17 07:09:50;;;;;;;8.98;1.52;;;;;;;22.40;45.14;102230.91;5048994;28;20079;-67
2022/07/17 07:12:17;;;;;;;4.65;1.35;;;;;;;22.76;44.91;102225.41;5049360;28;20098;-67
2022/07/17 07:14:43;;;;;;;7.10;1.30;;;;;;;22.54;43.52;102223.50;5047482;28;20099;-67
2022/07/17 07:17:10;;;;;;;8.80;1.83;;;;;;;23.00;43.85;102217.22;5048261;28;20060;-67
2022/07/17 07:19:37;;;;;;;4.95;1.20;;;;;;;22.50;42.91;102218.53;5047460;28;20045;-67
2022/07/17 07:22:03;;;;;;;7.63;1.35;;;;;;;22.16;42.13;102221.16;5063136;28;20170;-67
2022/07/17 07:24:30;;;;;;;8.20;1.85;;;;;;;22.18;42.55;102219.22;5068325;28;20048;-67
2022/07/17 07:26:56;;;;;;;9.40;2.17;;;;;;;22.42;42.23;102219.16;5068544;28;20041;-67
2022/07/17 07:29:22;;;;;;;7.38;1.30;;;;;;;23.10;42.99;102223.50;5066635;28;20044;-67
2022/07/17 07:31:49;;;;;;;7.97;1.70;;;;;;;23.11;43.15;102217.19;5063735;28;20049;-67
2022/07/17 07:34:15;;;;;;;5.22;1.67;;;;;;;23.08;41.51;102218.31;5047679;28;20103;-66
2022/07/17 07:36:43;;;;;;;6.72;1.50;;;;;;;23.19;43.20;102220.97;5048740;28;20044;-68
2022/07/17 07:39:09;;;;;;;11.88;1.75;;;;;;;22.73;42.05;102217.59;5051894;28;20056;-66
2022/07/17 07:41:36;;;;;;;4.82;1.50;;;;;;;23.26;44.00;102222.16;5061320;28;20071;-66
2022/07/17 07:44:02;;;;;;;6.93;1.92;;;;;;;23.54;42.02;102230.63;5067810;28;20117;-66
2022/07/17 07:46:28;;;;;;;9.52;1.50;;;;;;;23.90;41.16;102234.75;5067558;28;20041;-66
2022/07/17 07:48:55;;;;;;;7.70;1.85;;;;;;;24.03;40.77;102228.19;5066779;28;20130;-66
2022/07/17 07:51:21;;;;;;;7.80;1.80;;;;;;;24.20;39.93;102232.19;5066267;28;20125;-66
2022/07/17 07:53:49;;;;;;;6.82;1.60;;;;;;;24.34;40.06;102225.63;5060091;28;20189;-66
2022/07/17 07:56:15;;;;;;;7.03;1.40;;;;;;;23.84;41.61;102237.91;5066731;28;20048;-66
2022/07/17 07:58:41;;;;;;;7.78;2.08;;;;;;;23.94;40.74;102231.69;5066124;28;20121;-66
2022/07/17 08:01:08;;;;;;;6.88;1.77;;;;;;;23.29;41.33;102240.63;5067487;28;20048;-66
2022/07/17 08:03:34;;;;;;;6.25;1.55;;;;;;;23.60;41.47;102227.44;5048850;28;20079;-66
2022/07/17 08:06:01;;;;;;;10.52;1.63;;;;;;;23.91;39.24;102217.69;5047195;28;20040;-66
2022/07/17 08:08:27;;;;;;;5.95;1.40;;;;;;;23.12;39.24;102230.47;5047709;28;20041;-66
2022/07/17 08:10:55;;;;;;;6.45;1.33;;;;;;;22.78;40.59;102232.31;5053055;28;20040;-66
2022/07/17 08:13:21;;;;;;;6.65;2.28;;;;;;;22.29;42.26;102237.94;5066376;28;20071;-66
2022/07/17 08:15:47;;;;;;;7.68;1.83;;;;;;;23.11;45.13;102227.91;5067926;28;20072;-67
2022/07/17 08:18:14;;;;;;;8.32;2.08;;;;;;;23.57;43.16;102227.69;5068195;28;20436;-67
2022/07/17 08:20:40;;;;;;;8.13;1.70;;;;;;;24.74;42.38;102229.19;5066391;28;20072;-67
2022/07/17 08:23:07;;;;;;;7.97;1.80;;;;;;;24.92;43.84;102227.59;5067516;28;20052;-67
2022/07/17 08:25:34;;;;;;;6.15;1.48;;;;;;;24.80;38.01;102233.16;5065670;28;20121;-67
2022/07/17 08:28:02;;;;;;;8.02;1.85;;;;;;;24.89;39.28;102233.25;5065858;28;20048;-67
2022/07/17 08:30:31;;;;;;;5.53;1.50;;;;;;;25.01;36.66;102232.16;5066589;28;20040;-67
2022/07/17 08:32:57;;;;;;;11.15;1.80;;;;;;;25.08;39.28;102241.38;5066040;28;20036;-67
2022/07/17 08:35:24;;;;;;;7.38;1.50;;;;;;;25.38;39.90;102228.84;5057069;28;20115;-67
2022/07/17 08:37:52;;;;;;;8.00;1.70;;;;;;;25.93;37.86;102241.63;5047657;28;20045;-67
2022/07/17 08:40:20;;;;;;;5.32;1.77;;;;;;;25.52;35.59;102231.16;5046261;28;20392;-67
2022/07/17 08:42:47;;;;;;;4.88;1.58;;;;;;;26.13;38.65;102235.22;5057313;28;20045;-67
2022/07/17 08:45:15;;;;;;;7.20;1.92;;;;;;;26.06;37.36;102230.56;5051951;28;20056;-67
2022/07/17 08:47:44;;;;;;;6.15;1.55;;;;;;;25.36;36.14;102241.56;5045866;28;20049;-67
2022/07/17 08:50:16;;;;;;;7.90;1.95;;;;;;;25.43;38.50;102243.53;5054737;28;20471;-66
2022/07/17 08:52:43;;;;;;;;;;;;;;;25.32;36.71;102242.81;5071708;27;20047;-67
2022/07/17 08:55:12;;;;;;;6.18;1.60;;;;;;;25.53;38.78;102243.59;5055437;28;19931;-67
2022/07/17 08:57:40;;;;;;;4.95;1.40;;;;;;;26.01;38.29;102239.09;5047369;28;20033;-67
2022/07/17 09:00:08;;;;;;;8.43;1.58;;;;;;;25.76;34.44;102252.25;5045307;28;20055;-67
2022/07/17 09:02:35;;;;;;;6.57;1.92;;;;;;;26.20;35.70;102250.84;5047935;28;20537;-66
2022/07/17 09:05:02;;;;;;;7.03;1.60;;;;;;;26.06;38.32;102257.44;5045418;28;20133;-67
2022/07/17 09:07:28;;;;;;;7.28;1.52;;;;;;;26.41;36.04;102246.09;5046739;28;20539;-66
2022/07/17 09:09:55;;;;;;;10.52;2.25;;;;;;;26.10;34.57;102246.28;5046354;28;20045;-66
2022/07/17 09:12:26;;;;;;;7.60;1.50;;;;;;;25.86;38.21;102245.88;5046453;28;20048;-67
2022/07/17 09:14:52;;;;;;;4.70;1.30;;;;;;;25.77;36.35;102238.66;5045465;28;20063;-66
2022/07/17 09:17:18;;;;;;;5.80;1.58;;;;;;;24.95;36.73;102238.06;5047060;28;20122;-66
2022/07/17 09:19:47;;;;;;;5.65;1.33;;;;;;;25.22;40.63;102242.81;5045442;28;20102;-66
2022/07/17 09:22:18;;;;;;;10.93;1.58;;;;;;;25.13;35.58;102240.94;5060672;28;20048;-66
2022/07/17 09:24:48;;;;;;;6.03;1.47;;;;;;;24.45;38.40;102245.16;5066227;28;20048;-66
2022/07/17 09:27:18;;;;;;;7.60;1.80;;;;;;;24.43;38.72;102238.22;5067573;28;20114;-66
2022/07/17 09:29:53;;;;;;;11.70;2.92;;;;;;;25.44;42.01;102237.19;5066120;28;20045;-66
2022/07/17 09:32:20;;;;;;;6.60;1.38;;;;;;;25.92;34.45;102233.69;5070034;28;20076;-66
2022/07/17 09:34:49;;;;;;;9.85;1.60;;;;;;;25.97;35.27;102242.19;5045766;28;20102;-66
2022/07/17 09:37:16;;;;;;;6.82;1.80;;;;;;;26.43;33.29;102238.72;5050549;28;20053;-67
2022/07/17 09:39:43;;;;;;;4.05;1.30;;;;;;;26.82;39.10;102236.75;5056131;28;20072;-66
2022/07/17 09:42:10;;;;;;;6.80;1.40;;;;;;;26.90;37.36;102236.91;5065842;28;20083;-66
2022/07/17 09:44:36;;;;;;;6.70;1.52;;;;;;;27.43;35.10;102223.50;5070326;28;20094;-67
2022/07/17 09:47:03;;;;;;;9.82;1.75;;;;;;;27.53;32.59;102211.69;5069581;28;20045;-65
2022/07/17 09:49:30;;;;;;;5.00;1.40;;;;;;;27.13;32.97;102227.41;5068551;28;20052;-66
2022/07/17 09:51:59;;;;;;;8.77;1.88;;;;;;;27.47;35.04;102223.09;5070302;28;20110;-66
2022/07/17 09:54:26;;;;;;;4.90;1.70;;;;;;;27.81;37.64;102228.63;5069033;28;20045;-66
2022/07/17 09:56:58;;;;;;;6.28;1.48;;;;;;;27.77;36.56;102213.78;5068948;28;20488;-66
2022/07/17 09:59:29;;;;;;;3.88;1.35;;;;;;;27.59;33.45;102212.94;5068042;28;20041;-65
2022/07/17 10:01:56;;;;;;;5.50;1.30;;;;;;;27.79;31.53;102219.03;5072462;28;20372;-66
2022/07/17 10:04:22;;;;;;;5.47;1.27;;;;;;;28.04;36.66;102210.13;5068358;28;20040;-65
2022/07/17 10:06:49;;;;;;;7.90;1.33;;;;;;;28.26;36.64;102214.16;5061503;28;20389;-66
2022/07/17 10:09:18;;;;;;;6.60;1.73;;;;;;;28.06;33.94;102202.69;5048869;28;20045;-66
2022/07/17 10:11:45;;;;;;;6.18;1.65;;;;;;;27.77;33.76;102203.00;5065876;28;20047;-67
2022/07/17 10:14:13;;;;;;;5.13;1.30;;;;;;;27.37;32.42;102207.97;5082162;28;20396;-67
2022/07/17 10:16:40;;;;;;;8.00;1.55;;;;;;;27.23;35.46;102212.06;5071410;28;20121;-67
2022/07/17 10:19:18;;;;;;;6.60;1.42;;;;;;;26.80;33.54;102220.75;5068336;28;20484;-67
2022/07/17 10:21:54;;;;;;;5.68;1.58;;;;;;;27.08;35.24;102210.88;5061347;28;20044;-67
2022/07/17 10:24:22;;;;;;;6.25;1.67;;;;;;;26.78;35.98;102209.28;5069239;28;20713;-67
2022/07/17 10:26:49;;;;;;;7.03;1.80;;;;;;;27.02;34.76;102203.38;5065891;28;20041;-67
2022/07/17 10:29:31;;;;;;;5.80;1.48;;;;;;;27.03;38.32;102211.31;5067843;28;20055;-67
2022/07/17 10:31:59;;;;;;;5.20;1.52;;;;;;;27.82;34.06;102203.38;5075082;28;20037;-67
2022/07/17 10:34:43;;;;;;;4.35;1.60;;;;;;;28.20;34.86;102198.59;5067627;28;20044;-67
2022/07/17 10:37:21;;;;;;;8.68;1.67;;;;;;;28.21;35.25;102213.78;5066948;28;20049;-67
2022/07/17 10:39:57;;;;;;;5.43;1.55;;;;;;;28.31;31.27;102201.03;5066440;28;20516;-67
2022/07/17 10:42:48;;;;;;;5.70;1.60;;;;;;;28.16;35.59;102192.69;5068389;28;20044;-67
2022/07/17 10:45:16;;;;;;;6.50;1.90;;;;;;;28.37;32.22;102197.72;5058928;28;20059;-67
2022/07/17 10:47:51;;;;;;;5.75;1.65;;;;;;;28.58;34.42;102190.06;5083575;28;20040;-72
2022/07/17 10:50:21;;;;;;;7.35;1.98;;;;;;;28.86;33.46;102185.34;5066448;28;20401;-68
2022/07/17 10:52:59;;;;;;;11.68;1.55;;;;;;;28.71;31.46;102195.91;5060580;28;20048;-67
2022/07/17 10:55:27;;;;;;;4.20;1.23;;;;;;;28.71;32.85;102193.22;5066206;28;20040;-67
2022/07/17 10:57:54;;;;;;;7.70;1.60;;;;;;;28.54;33.00;102192.25;5066465;28;20052;-67
2022/07/17 11:00:21;;;;;;;7.00;1.70;;;;;;;29.12;31.58;102193.34;5065050;28;20057;-68
2022/07/17 11:02:47;;;;;;;6.45;1.48;;;;;;;28.99;28.86;102188.41;5067490;28;20040;-67
2022/07/17 11:05:16;;;;;;;7.82;1.48;;;;;;;29.11;29.73;102189.78;5067706;28;20388;-67
2022/07/17 11:07:54;;;;;;;7.53;1.73;;;;;;;28.84;29.90;102180.09;5066439;28;20090;-67
2022/07/17 11:10:22;;;;;;;4.68;1.35;;;;;;;28.47;30.00;102182.25;5066569;28;20499;-67
2022/07/17 11:12:51;;;;;;;7.85;1.70;;;;;;;28.42;30.19;102176.47;5063127;28;20614;-66
2022/07/17 11:15:18;;;;;;;7.05;1.70;;;;;;;28.15;31.20;102174.84;5045604;28;20530;-66
2022/07/17 11:17:46;;;;;;;9.95;1.92;;;;;;;28.25;34.94;102172.88;5046514;28;20045;-66
2022/07/17 11:20:13;;;;;;;3.97;1.45;;;;;;;28.57;30.17;102174.88;5051881;28;20063;-66
2022/07/17 11:22:40;;;;;;;7.72;1.60;;;;;;;28.38;28.99;102175.13;5052592;28;20049;-66
2022/07/17 11:25:08;;;;;;;6.22;1.40;;;;;;;28.33;34.67;102177.47;5071850;28;20098;-66